sensor_id;sensor_type;location;lat;lon;timestamp;pressure;altitude;pressure_sealevel;temperature;humidity
72975;BME280;61166;54.228;37.632;2022-10-16T00:01:57;100677.59;;;1.35;nan
72975;BME280;61166;54.228;37.632;2022-10-16T00:04:24;100679.13;;;1.37;nan
72975;BME280;61166;54.228;37.632;2022-10-16T00:06:51;100674.31;;;1.44;nan
72975;BME280;61166;54.228;37.632;2022-10-16T00:09:17;100688.56;;;1.49;nan
72975;BME280;61166;54.228;37.632;2022-10-16T00:11:44;100680.34;;;1.55;nan
72975;BME280;61166;54.228;37.632;2022-10-16T00:14:12;100686.47;;;1.54;nan
72975;BME280;61166;54.228;37.632;2022-10-16T00:16:39;100679.63;;;1.53;nan
72975;BME280;61166;54.228;37.632;2022-10-16T00:19:06;100681.03;;;1.46;nan
72975;BME280;61166;54.228;37.632;2022-10-16T00:21:33;100686.19;;;1.35;nan
72975;BME280;61166;54.228;37.632;2022-10-16T00:24:18;100682.16;;;1.20;nan
72975;BME280;61166;54.228;37.632;2022-10-16T00:26:45;100685.56;;;1.09;nan
72975;BME280;61166;54.228;37.632;2022-10-16T00:29:11;100685.31;;;1.01;nan
72975;BME280;61166;54.228;37.632;2022-10-16T00:31:38;100685.19;;;1.03;nan
72975;BME280;61166;54.228;37.632;2022-10-16T00:34:04;100681.56;;;1.05;nan
72975;BME280;61166;54.228;37.632;2022-10-16T00:36:31;100682.16;;;1.09;nan
72975;BME280;61166;54.228;37.632;2022-10-16T00:38:58;100689.69;;;1.12;nan
72975;BME280;61166;54.228;37.632;2022-10-16T00:41:31;100688.66;;;1.14;nan
72975;BME280;61166;54.228;37.632;2022-10-16T00:44:01;100689.31;;;1.16;nan
72975;BME280;61166;54.228;37.632;2022-10-16T00:46:41;100684.28;;;1.15;nan
72975;BME280;61166;54.228;37.632;2022-10-16T00:49:14;100683.81;;;1.10;nan
72975;BME280;61166;54.228;37.632;2022-10-16T00:51:42;100687.56;;;1.06;nan
72975;BME280;61166;54.228;37.632;2022-10-16T00:54:14;100692.03;;;1.04;nan
72975;BME280;61166;54.228;37.632;2022-10-16T00:56:43;100702.63;;;1.01;nan
72975;BME280;61166;54.228;37.632;2022-10-16T00:59:23;100696.94;;;0.95;nan
72975;BME280;61166;54.228;37.632;2022-10-16T01:01:52;100697.66;;;0.97;nan
72975;BME280;61166;54.228;37.632;2022-10-16T01:04:19;100695.06;;;0.97;nan
72975;BME280;61166;54.228;37.632;2022-10-16T01:06:47;100699.19;;;1.00;nan
72975;BME280;61166;54.228;37.632;2022-10-16T01:09:23;100708.41;;;1.04;nan
72975;BME280;61166;54.228;37.632;2022-10-16T01:12:05;100713.81;;;1.01;nan
72975;BME280;61166;54.228;37.632;2022-10-16T01:17:22;100714.53;;;1.03;nan
72975;BME280;61166;54.228;37.632;2022-10-16T01:22:25;100715.56;;;1.01;nan
72975;BME280;61166;54.228;37.632;2022-10-16T01:25:00;100720.72;;;0.89;nan
72975;BME280;61166;54.228;37.632;2022-10-16T01:27:31;100728.81;;;0.85;nan
72975;BME280;61166;54.228;37.632;2022-10-16T01:30:21;100728.31;;;0.80;nan
72975;BME280;61166;54.228;37.632;2022-10-16T01:32:57;100727.81;;;0.75;nan
72975;BME280;61166;54.228;37.632;2022-10-16T01:35:28;100725.22;;;0.75;nan
72975;BME280;61166;54.228;37.632;2022-10-16T01:37:58;100726.28;;;0.72;nan
72975;BME280;61166;54.228;37.632;2022-10-16T01:40:26;100730.91;;;0.80;nan
72975;BME280;61166;54.228;37.632;2022-10-16T01:43:06;100728.47;;;0.89;nan
72975;BME280;61166;54.228;37.632;2022-10-16T01:45:34;100730.84;;;0.92;nan
72975;BME280;61166;54.228;37.632;2022-10-16T01:48:03;100728.84;;;0.96;nan
72975;BME280;61166;54.228;37.632;2022-10-16T01:50:35;100729.47;;;0.99;nan
72975;BME280;61166;54.228;37.632;2022-10-16T01:53:05;100737.38;;;1.09;nan
72975;BME280;61166;54.228;37.632;2022-10-16T01:55:35;100734.34;;;1.15;nan
72975;BME280;61166;54.228;37.632;2022-10-16T01:58:05;100729.97;;;1.16;nan
72975;BME280;61166;54.228;37.632;2022-10-16T02:00:37;100734.47;;;1.14;nan
72975;BME280;61166;54.228;37.632;2022-10-16T02:03:04;100727.63;;;1.13;nan
72975;BME280;61166;54.228;37.632;2022-10-16T02:05:39;100739.38;;;1.06;nan
72975;BME280;61166;54.228;37.632;2022-10-16T02:08:07;100739.09;;;0.97;nan
72975;BME280;61166;54.228;37.632;2022-10-16T02:10:34;100747.53;;;0.88;nan
72975;BME280;61166;54.228;37.632;2022-10-16T02:13:22;100744.91;;;0.77;nan
72975;BME280;61166;54.228;37.632;2022-10-16T02:15:50;100742.19;;;0.79;nan
72975;BME280;61166;54.228;37.632;2022-10-16T02:18:16;100741.81;;;0.72;nan
72975;BME280;61166;54.228;37.632;2022-10-16T02:20:53;100749.34;;;0.75;nan
72975;BME280;61166;54.228;37.632;2022-10-16T02:23:36;100747.59;;;0.76;nan
72975;BME280;61166;54.228;37.632;2022-10-16T02:26:07;100748.84;;;0.70;nan
72975;BME280;61166;54.228;37.632;2022-10-16T02:28:42;100752.81;;;0.63;nan
72975;BME280;61166;54.228;37.632;2022-10-16T02:31:16;100754.53;;;0.51;nan
72975;BME280;61166;54.228;37.632;2022-10-16T02:33:45;100757.56;;;0.45;nan
72975;BME280;61166;54.228;37.632;2022-10-16T02:36:12;100765.13;;;0.48;nan
72975;BME280;61166;54.228;37.632;2022-10-16T02:38:39;100762.41;;;0.50;nan
72975;BME280;61166;54.228;37.632;2022-10-16T02:41:07;100767.69;;;0.48;nan
72975;BME280;61166;54.228;37.632;2022-10-16T02:43:33;100766.25;;;0.44;nan
72975;BME280;61166;54.228;37.632;2022-10-16T02:46:00;100771.66;;;0.41;nan
72975;BME280;61166;54.228;37.632;2022-10-16T02:48:27;100766.91;;;0.35;nan
72975;BME280;61166;54.228;37.632;2022-10-16T02:50:53;100766.78;;;0.37;nan
72975;BME280;61166;54.228;37.632;2022-10-16T02:53:19;100768.88;;;0.31;nan
72975;BME280;61166;54.228;37.632;2022-10-16T02:55:46;100768.66;;;0.35;nan
72975;BME280;61166;54.228;37.632;2022-10-16T02:58:12;100769.78;;;0.43;nan
72975;BME280;61166;54.228;37.632;2022-10-16T03:00:39;100772.78;;;0.50;nan
72975;BME280;61166;54.228;37.632;2022-10-16T03:03:06;100772.66;;;0.51;nan
72975;BME280;61166;54.228;37.632;2022-10-16T03:05:32;100772.78;;;0.50;nan
72975;BME280;61166;54.228;37.632;2022-10-16T03:07:59;100774.84;;;0.45;nan
72975;BME280;61166;54.228;37.632;2022-10-16T03:10:26;100777.44;;;0.45;nan
72975;BME280;61166;54.228;37.632;2022-10-16T03:12:53;100784.59;;;0.41;nan
72975;BME280;61166;54.228;37.632;2022-10-16T03:15:19;100784.47;;;0.43;nan
72975;BME280;61166;54.228;37.632;2022-10-16T03:17:46;100776.94;;;0.40;nan
72975;BME280;61166;54.228;37.632;2022-10-16T03:20:13;100777.25;;;0.35;nan
72975;BME280;61166;54.228;37.632;2022-10-16T03:22:39;100782.63;;;0.32;nan
72975;BME280;61166;54.228;37.632;2022-10-16T03:25:06;100785.13;;;0.33;nan
72975;BME280;61166;54.228;37.632;2022-10-16T03:27:33;100787.19;;;0.28;nan
72975;BME280;61166;54.228;37.632;2022-10-16T03:29:59;100787.63;;;0.22;nan
72975;BME280;61166;54.228;37.632;2022-10-16T03:32:26;100786.78;;;0.22;nan
72975;BME280;61166;54.228;37.632;2022-10-16T03:34:53;100794.66;;;0.20;nan
72975;BME280;61166;54.228;37.632;2022-10-16T03:37:20;100785.25;;;0.19;nan
72975;BME280;61166;54.228;37.632;2022-10-16T03:39:46;100792.91;;;0.21;nan
72975;BME280;61166;54.228;37.632;2022-10-16T03:42:13;100791.88;;;0.23;nan
72975;BME280;61166;54.228;37.632;2022-10-16T03:44:39;100799.00;;;0.20;nan
72975;BME280;61166;54.228;37.632;2022-10-16T03:47:06;100800.34;;;0.25;nan
72975;BME280;61166;54.228;37.632;2022-10-16T03:49:32;100803.03;;;0.24;nan
72975;BME280;61166;54.228;37.632;2022-10-16T03:51:59;100804.06;;;0.21;nan
72975;BME280;61166;54.228;37.632;2022-10-16T03:54:25;100807.28;;;0.25;nan
72975;BME280;61166;54.228;37.632;2022-10-16T03:56:52;100792.16;;;0.31;nan
72975;BME280;61166;54.228;37.632;2022-10-16T03:59:18;100798.06;;;0.33;nan
72975;BME280;61166;54.228;37.632;2022-10-16T04:01:45;100806.75;;;0.32;nan
72975;BME280;61166;54.228;37.632;2022-10-16T04:04:11;100809.13;;;0.36;nan
72975;BME280;61166;54.228;37.632;2022-10-16T04:06:38;100804.16;;;0.32;nan
72975;BME280;61166;54.228;37.632;2022-10-16T04:09:04;100807.69;;;0.31;nan
72975;BME280;61166;54.228;37.632;2022-10-16T04:11:31;100806.88;;;0.31;nan
72975;BME280;61166;54.228;37.632;2022-10-16T04:13:57;100811.81;;;0.34;nan
72975;BME280;61166;54.228;37.632;2022-10-16T04:16:24;100813.47;;;0.35;nan
72975;BME280;61166;54.228;37.632;2022-10-16T04:18:51;100814.72;;;0.42;nan
72975;BME280;61166;54.228;37.632;2022-10-16T04:21:17;100815.72;;;0.52;nan
72975;BME280;61166;54.228;37.632;2022-10-16T04:23:44;100818.00;;;0.57;nan
72975;BME280;61166;54.228;37.632;2022-10-16T04:26:10;100807.91;;;1.02;nan
72975;BME280;61166;54.228;37.632;2022-10-16T04:28:37;100809.09;;;2.46;nan
72975;BME280;61166;54.228;37.632;2022-10-16T04:31:05;100806.31;;;3.65;nan
72975;BME280;61166;54.228;37.632;2022-10-16T04:33:32;100811.16;;;4.71;nan
72975;BME280;61166;54.228;37.632;2022-10-16T04:36:00;100804.47;;;5.65;nan
72975;BME280;61166;54.228;37.632;2022-10-16T04:38:28;100808.88;;;6.48;nan
72975;BME280;61166;54.228;37.632;2022-10-16T04:40:55;100805.31;;;7.30;nan
72975;BME280;61166;54.228;37.632;2022-10-16T04:43:21;100805.94;;;7.93;nan
72975;BME280;61166;54.228;37.632;2022-10-16T04:45:48;100808.28;;;8.81;nan
72975;BME280;61166;54.228;37.632;2022-10-16T04:48:14;100803.44;;;9.51;nan
72975;BME280;61166;54.228;37.632;2022-10-16T04:50:41;100807.16;;;9.97;nan
72975;BME280;61166;54.228;37.632;2022-10-16T04:53:08;100805.00;;;10.56;nan
72975;BME280;61166;54.228;37.632;2022-10-16T04:55:34;100800.16;;;11.21;nan
72975;BME280;61166;54.228;37.632;2022-10-16T04:58:01;100801.53;;;11.78;nan
72975;BME280;61166;54.228;37.632;2022-10-16T05:00:27;100807.09;;;12.42;nan
72975;BME280;61166;54.228;37.632;2022-10-16T05:02:54;100805.13;;;13.01;nan
72975;BME280;61166;54.228;37.632;2022-10-16T05:05:20;100806.34;;;13.41;nan
72975;BME280;61166;54.228;37.632;2022-10-16T05:07:47;100807.34;;;13.96;nan
72975;BME280;61166;54.228;37.632;2022-10-16T05:10:14;100799.63;;;14.29;nan
72975;BME280;61166;54.228;37.632;2022-10-16T05:12:41;100806.53;;;14.71;nan
72975;BME280;61166;54.228;37.632;2022-10-16T05:15:08;100803.78;;;15.19;nan
72975;BME280;61166;54.228;37.632;2022-10-16T05:17:34;100797.91;;;15.70;nan
72975;BME280;61166;54.228;37.632;2022-10-16T05:20:03;100803.50;;;16.26;nan
72975;BME280;61166;54.228;37.632;2022-10-16T05:22:30;100806.06;;;16.59;nan
72975;BME280;61166;54.228;37.632;2022-10-16T05:24:56;100811.88;;;16.88;nan
72975;BME280;61166;54.228;37.632;2022-10-16T05:27:23;100807.78;;;17.23;nan
72975;BME280;61166;54.228;37.632;2022-10-16T05:29:50;100812.88;;;17.49;nan
72975;BME280;61166;54.228;37.632;2022-10-16T05:32:18;100811.19;;;18.23;nan
72975;BME280;61166;54.228;37.632;2022-10-16T05:34:45;100814.84;;;18.59;nan
72975;BME280;61166;54.228;37.632;2022-10-16T05:37:12;100815.59;;;18.84;nan
72975;BME280;61166;54.228;37.632;2022-10-16T05:39:39;100808.81;;;19.00;nan
72975;BME280;61166;54.228;37.632;2022-10-16T05:42:05;100819.16;;;19.20;nan
72975;BME280;61166;54.228;37.632;2022-10-16T05:44:32;100815.38;;;19.27;nan
72975;BME280;61166;54.228;37.632;2022-10-16T05:47:04;100820.81;;;19.62;nan
72975;BME280;61166;54.228;37.632;2022-10-16T05:49:30;100814.50;;;19.80;nan
72975;BME280;61166;54.228;37.632;2022-10-16T05:51:57;100815.03;;;20.29;nan
72975;BME280;61166;54.228;37.632;2022-10-16T05:54:23;100826.50;;;20.64;nan
72975;BME280;61166;54.228;37.632;2022-10-16T05:56:50;100822.09;;;20.58;nan
72975;BME280;61166;54.228;37.632;2022-10-16T05:59:16;100822.75;;;20.94;nan
72975;BME280;61166;54.228;37.632;2022-10-16T06:01:43;100836.03;;;20.89;nan
72975;BME280;61166;54.228;37.632;2022-10-16T06:04:09;100833.00;;;21.25;nan
72975;BME280;61166;54.228;37.632;2022-10-16T06:06:41;100833.97;;;21.53;nan
72975;BME280;61166;54.228;37.632;2022-10-16T06:09:09;100832.69;;;21.72;nan
72975;BME280;61166;54.228;37.632;2022-10-16T06:11:36;100828.50;;;22.15;nan
72975;BME280;61166;54.228;37.632;2022-10-16T06:14:02;100830.59;;;22.13;nan
72975;BME280;61166;54.228;37.632;2022-10-16T06:16:29;100834.31;;;22.28;nan
72975;BME280;61166;54.228;37.632;2022-10-16T06:18:55;100827.78;;;22.68;nan
72975;BME280;61166;54.228;37.632;2022-10-16T06:21:23;100833.16;;;22.90;nan
72975;BME280;61166;54.228;37.632;2022-10-16T06:23:50;100825.34;;;23.10;nan
72975;BME280;61166;54.228;37.632;2022-10-16T06:26:19;100825.94;;;23.49;nan
72975;BME280;61166;54.228;37.632;2022-10-16T06:28:46;100829.16;;;23.51;nan
72975;BME280;61166;54.228;37.632;2022-10-16T06:31:14;100831.13;;;23.56;nan
72975;BME280;61166;54.228;37.632;2022-10-16T06:33:42;100836.53;;;23.61;nan
72975;BME280;61166;54.228;37.632;2022-10-16T06:36:14;100831.81;;;23.83;nan
72975;BME280;61166;54.228;37.632;2022-10-16T06:38:41;100832.53;;;24.11;nan
72975;BME280;61166;54.228;37.632;2022-10-16T06:41:11;100832.66;;;24.26;nan
72975;BME280;61166;54.228;37.632;2022-10-16T06:43:38;100834.28;;;23.90;nan
72975;BME280;61166;54.228;37.632;2022-10-16T06:46:06;100832.88;;;24.24;nan
72975;BME280;61166;54.228;37.632;2022-10-16T06:48:33;100837.53;;;24.39;nan
72975;BME280;61166;54.228;37.632;2022-10-16T06:53:52;100843.78;;;24.02;nan
72975;BME280;61166;54.228;37.632;2022-10-16T06:56:30;100838.38;;;23.97;nan
72975;BME280;61166;54.228;37.632;2022-10-16T06:58:57;100836.59;;;23.76;nan
72975;BME280;61166;54.228;37.632;2022-10-16T07:01:25;100846.00;;;23.74;nan
72975;BME280;61166;54.228;37.632;2022-10-16T07:03:52;100837.72;;;23.80;nan
72975;BME280;61166;54.228;37.632;2022-10-16T07:06:20;100846.63;;;24.28;nan
72975;BME280;61166;54.228;37.632;2022-10-16T07:08:47;100850.53;;;24.10;nan
72975;BME280;61166;54.228;37.632;2022-10-16T07:11:19;100848.69;;;23.42;nan
72975;BME280;61166;54.228;37.632;2022-10-16T07:13:46;100845.19;;;23.14;nan
72975;BME280;61166;54.228;37.632;2022-10-16T07:16:24;100848.78;;;23.52;nan
72975;BME280;61166;54.228;37.632;2022-10-16T07:18:53;100845.69;;;23.70;nan
72975;BME280;61166;54.228;37.632;2022-10-16T07:21:21;100853.75;;;23.65;nan
72975;BME280;61166;54.228;37.632;2022-10-16T07:23:52;100851.44;;;23.84;nan
72975;BME280;61166;54.228;37.632;2022-10-16T07:26:19;100849.06;;;23.87;nan
72975;BME280;61166;54.228;37.632;2022-10-16T07:28:45;100854.72;;;23.54;nan
72975;BME280;61166;54.228;37.632;2022-10-16T07:31:14;100851.78;;;23.28;nan
72975;BME280;61166;54.228;37.632;2022-10-16T07:33:42;100851.38;;;23.42;nan
72975;BME280;61166;54.228;37.632;2022-10-16T07:36:10;100847.56;;;23.64;nan
72975;BME280;61166;54.228;37.632;2022-10-16T07:38:42;100860.34;;;23.25;nan
72975;BME280;61166;54.228;37.632;2022-10-16T07:41:14;100852.06;;;23.00;nan
72975;BME280;61166;54.228;37.632;2022-10-16T07:43:49;100850.88;;;22.91;nan
72975;BME280;61166;54.228;37.632;2022-10-16T07:46:16;100854.00;;;22.83;nan
72975;BME280;61166;54.228;37.632;2022-10-16T07:48:44;100844.84;;;22.79;nan
72975;BME280;61166;54.228;37.632;2022-10-16T07:51:11;100845.19;;;22.22;nan
72975;BME280;61166;54.228;37.632;2022-10-16T07:53:38;100848.22;;;22.47;nan
72975;BME280;61166;54.228;37.632;2022-10-16T07:56:06;100846.06;;;23.20;nan
72975;BME280;61166;54.228;37.632;2022-10-16T07:58:34;100853.97;;;23.31;nan
72975;BME280;61166;54.228;37.632;2022-10-16T08:01:04;100845.47;;;22.86;nan
72975;BME280;61166;54.228;37.632;2022-10-16T08:03:32;100846.84;;;22.88;nan
72975;BME280;61166;54.228;37.632;2022-10-16T08:05:59;100843.31;;;23.15;nan
72975;BME280;61166;54.228;37.632;2022-10-16T08:08:27;100848.78;;;23.52;nan
72975;BME280;61166;54.228;37.632;2022-10-16T08:10:54;100843.59;;;23.13;nan
72975;BME280;61166;54.228;37.632;2022-10-16T08:13:20;100845.44;;;23.08;nan
72975;BME280;61166;54.228;37.632;2022-10-16T08:15:47;100839.72;;;23.31;nan
72975;BME280;61166;54.228;37.632;2022-10-16T08:18:15;100841.41;;;23.37;nan
72975;BME280;61166;54.228;37.632;2022-10-16T08:20:42;100838.75;;;23.42;nan
72975;BME280;61166;54.228;37.632;2022-10-16T08:23:11;100837.72;;;21.68;nan
72975;BME280;61166;54.228;37.632;2022-10-16T08:25:37;100843.00;;;20.61;nan
72975;BME280;61166;54.228;37.632;2022-10-16T08:28:05;100840.34;;;20.61;nan
72975;BME280;61166;54.228;37.632;2022-10-16T08:30:32;100832.88;;;20.00;nan
72975;BME280;61166;54.228;37.632;2022-10-16T08:32:59;100839.06;;;20.64;nan
72975;BME280;61166;54.228;37.632;2022-10-16T08:35:25;100831.81;;;20.13;nan
72975;BME280;61166;54.228;37.632;2022-10-16T08:37:52;100833.28;;;19.50;nan
72975;BME280;61166;54.228;37.632;2022-10-16T08:40:29;100839.00;;;19.65;nan
72975;BME280;61166;54.228;37.632;2022-10-16T08:48:47;100842.22;;;20.26;nan
72975;BME280;61166;54.228;37.632;2022-10-16T08:51:31;100830.25;;;20.52;nan
72975;BME280;61166;54.228;37.632;2022-10-16T08:54:02;100832.75;;;20.98;nan
72975;BME280;61166;54.228;37.632;2022-10-16T08:56:29;100834.06;;;21.24;nan
72975;BME280;61166;54.228;37.632;2022-10-16T08:58:57;100828.06;;;21.34;nan
72975;BME280;61166;54.228;37.632;2022-10-16T09:01:45;100832.75;;;21.43;nan
72975;BME280;61166;54.228;37.632;2022-10-16T09:12:38;100841.22;;;17.62;nan
72975;BME280;61166;54.228;37.632;2022-10-16T09:22:40;100856.56;;;13.63;nan
72975;BME280;61166;54.228;37.632;2022-10-16T09:25:15;100850.06;;;12.86;nan
72975;BME280;61166;54.228;37.632;2022-10-16T09:27:45;100851.28;;;12.69;nan
72975;BME280;61166;54.228;37.632;2022-10-16T09:30:15;100848.03;;;12.38;nan
72975;BME280;61166;54.228;37.632;2022-10-16T09:32:44;100847.66;;;12.26;nan
72975;BME280;61166;54.228;37.632;2022-10-16T09:35:24;100842.63;;;11.87;nan
72975;BME280;61166;54.228;37.632;2022-10-16T09:37:54;100844.38;;;11.72;nan
72975;BME280;61166;54.228;37.632;2022-10-16T09:40:32;100839.38;;;11.39;nan
72975;BME280;61166;54.228;37.632;2022-10-16T09:43:25;100844.28;;;11.19;nan
72975;BME280;61166;54.228;37.632;2022-10-16T09:48:57;100837.50;;;11.25;nan
72975;BME280;61166;54.228;37.632;2022-10-16T09:51:27;100841.06;;;11.09;nan
72975;BME280;61166;54.228;37.632;2022-10-16T09:56:33;100840.03;;;10.96;nan
72975;BME280;61166;54.228;37.632;2022-10-16T09:59:08;100832.69;;;11.06;nan
72975;BME280;61166;54.228;37.632;2022-10-16T10:01:37;100837.31;;;11.04;nan
72975;BME280;61166;54.228;37.632;2022-10-16T10:04:05;100841.75;;;11.03;nan
72975;BME280;61166;54.228;37.632;2022-10-16T10:06:40;100830.69;;;11.08;nan
72975;BME280;61166;54.228;37.632;2022-10-16T10:14:36;100829.88;;;10.84;nan
72975;BME280;61166;54.228;37.632;2022-10-16T10:22:25;100818.09;;;10.72;nan
72975;BME280;61166;54.228;37.632;2022-10-16T10:27:31;100833.75;;;10.66;nan
72975;BME280;61166;54.228;37.632;2022-10-16T10:30:10;100822.03;;;10.76;nan
72975;BME280;61166;54.228;37.632;2022-10-16T10:38:27;100824.22;;;10.65;nan
72975;BME280;61166;54.228;37.632;2022-10-16T10:41:04;100819.00;;;10.48;nan
72975;BME280;61166;54.228;37.632;2022-10-16T10:46:41;100820.94;;;10.63;nan
72975;BME280;61166;54.228;37.632;2022-10-16T10:49:54;100820.94;;;10.63;nan
72975;BME280;61166;54.228;37.632;2022-10-16T10:52:17;100815.81;;;10.69;nan
72975;BME280;61166;54.228;37.632;2022-10-16T10:55:09;100820.06;;;10.70;nan
72975;BME280;61166;54.228;37.632;2022-10-16T10:57:48;100810.53;;;10.69;nan
72975;BME280;61166;54.228;37.632;2022-10-16T11:00:32;100810.56;;;10.61;nan
72975;BME280;61166;54.228;37.632;2022-10-16T11:06:15;100822.28;;;10.50;nan
72975;BME280;61166;54.228;37.632;2022-10-16T11:08:53;100822.50;;;10.41;nan
72975;BME280;61166;54.228;37.632;2022-10-16T11:11:35;100817.22;;;10.41;nan
72975;BME280;61166;54.228;37.632;2022-10-16T11:16:52;100822.94;;;10.52;nan
72975;BME280;61166;54.228;37.632;2022-10-16T11:21:52;100816.56;;;10.47;nan
72975;BME280;61166;54.228;37.632;2022-10-16T11:24:35;100817.06;;;10.42;nan
72975;BME280;61166;54.228;37.632;2022-10-16T11:27:08;100813.88;;;10.55;nan
72975;BME280;61166;54.228;37.632;2022-10-16T11:29:43;100816.88;;;10.52;nan
72975;BME280;61166;54.228;37.632;2022-10-16T11:32:21;100798.09;;;10.55;nan
72975;BME280;61166;54.228;37.632;2022-10-16T11:34:52;100808.97;;;10.52;nan
72975;BME280;61166;54.228;37.632;2022-10-16T11:37:27;100799.78;;;10.48;nan
72975;BME280;61166;54.228;37.632;2022-10-16T11:40:05;100806.69;;;10.49;nan
72975;BME280;61166;54.228;37.632;2022-10-16T11:42:41;100806.03;;;10.47;nan
72975;BME280;61166;54.228;37.632;2022-10-16T11:48:07;100803.25;;;10.40;nan
72975;BME280;61166;54.228;37.632;2022-10-16T11:50:56;100797.38;;;10.38;nan
72975;BME280;61166;54.228;37.632;2022-10-16T11:55:56;100795.56;;;10.39;nan
72975;BME280;61166;54.228;37.632;2022-10-16T12:01:06;100791.00;;;10.24;nan
72975;BME280;61166;54.228;37.632;2022-10-16T12:03:46;100797.91;;;10.25;nan
72975;BME280;61166;54.228;37.632;2022-10-16T12:06:25;100787.72;;;10.22;nan
72975;BME280;61166;54.228;37.632;2022-10-16T12:08:58;100790.69;;;10.19;nan
72975;BME280;61166;54.228;37.632;2022-10-16T12:16:33;100790.34;;;10.14;nan
72975;BME280;61166;54.228;37.632;2022-10-16T12:19:15;100789.72;;;10.12;nan
72975;BME280;61166;54.228;37.632;2022-10-16T12:21:42;100783.78;;;10.10;nan
72975;BME280;61166;54.228;37.632;2022-10-16T12:26:50;100783.63;;;10.12;nan
72975;BME280;61166;54.228;37.632;2022-10-16T12:29:30;100778.38;;;10.04;nan
72975;BME280;61166;54.228;37.632;2022-10-16T12:31:58;100774.94;;;10.03;nan
72975;BME280;61166;54.228;37.632;2022-10-16T12:36:55;100769.72;;;9.95;nan
72975;BME280;61166;54.228;37.632;2022-10-16T12:39:33;100775.63;;;9.97;nan
72975;BME280;61166;54.228;37.632;2022-10-16T12:42:04;100775.63;;;9.97;nan
72975;BME280;61166;54.228;37.632;2022-10-16T12:44:33;100769.22;;;9.91;nan
72975;BME280;61166;54.228;37.632;2022-10-16T12:47:01;100772.00;;;9.90;nan
72975;BME280;61166;54.228;37.632;2022-10-16T12:49:30;100763.97;;;9.91;nan
72975;BME280;61166;54.228;37.632;2022-10-16T12:51:56;100769.22;;;9.91;nan
72975;BME280;61166;54.228;37.632;2022-10-16T13:11:52;100750.09;;;9.50;nan
72975;BME280;61166;54.228;37.632;2022-10-16T13:25:13;100741.56;;;9.48;nan
72975;BME280;61166;54.228;37.632;2022-10-16T13:28:04;100751.25;;;9.40;nan
72975;BME280;61166;54.228;37.632;2022-10-16T13:33:52;100753.38;;;9.36;nan
72975;BME280;61166;54.228;37.632;2022-10-16T13:35:54;100743.88;;;9.27;nan
72975;BME280;61166;54.228;37.632;2022-10-16T13:38:24;100757.34;;;9.16;nan
72975;BME280;61166;54.228;37.632;2022-10-16T13:40:59;100753.75;;;9.17;nan
72975;BME280;61166;54.228;37.632;2022-10-16T13:43:36;100750.63;;;9.05;nan
72975;BME280;61166;54.228;37.632;2022-10-16T13:46:13;100761.44;;;9.02;nan
72975;BME280;61166;54.228;37.632;2022-10-16T13:48:40;100752.22;;;8.90;nan
72975;BME280;61166;54.228;37.632;2022-10-16T13:51:17;100750.28;;;8.92;nan
72975;BME280;61166;54.228;37.632;2022-10-16T13:53:45;100751.72;;;8.86;nan
72975;BME280;61166;54.228;37.632;2022-10-16T13:56:14;100762.69;;;8.74;nan
72975;BME280;61166;54.228;37.632;2022-10-16T13:58:41;100764.66;;;8.64;nan
72975;BME280;61166;54.228;37.632;2022-10-16T14:01:20;100763.34;;;8.59;nan
72975;BME280;61166;54.228;37.632;2022-10-16T14:04:04;100752.34;;;8.56;nan
72975;BME280;61166;54.228;37.632;2022-10-16T14:06:32;100761.16;;;8.47;nan
72975;BME280;61166;54.228;37.632;2022-10-16T14:09:24;100756.59;;;8.49;nan
72975;BME280;61166;54.228;37.632;2022-10-16T14:11:58;100764.88;;;8.36;nan
72975;BME280;61166;54.228;37.632;2022-10-16T14:14:30;100757.59;;;8.22;nan
72975;BME280;61166;54.228;37.632;2022-10-16T14:17:00;100766.53;;;8.11;nan
72975;BME280;61166;54.228;37.632;2022-10-16T14:19:29;100761.66;;;8.08;nan
72975;BME280;61166;54.228;37.632;2022-10-16T14:21:58;100763.59;;;8.06;nan
72975;BME280;61166;54.228;37.632;2022-10-16T14:24:30;100766.78;;;7.92;nan
72975;BME280;61166;54.228;37.632;2022-10-16T14:26:58;100773.56;;;7.77;nan
72975;BME280;61166;54.228;37.632;2022-10-16T14:29:26;100778.03;;;7.58;nan
72975;BME280;61166;54.228;37.632;2022-10-16T14:31:59;100773.75;;;7.49;nan
72975;BME280;61166;54.228;37.632;2022-10-16T14:36:56;100775.63;;;7.39;nan
72975;BME280;61166;54.228;37.632;2022-10-16T14:39:25;100786.31;;;7.28;nan
72975;BME280;61166;54.228;37.632;2022-10-16T14:41:52;100785.56;;;7.18;nan
72975;BME280;61166;54.228;37.632;2022-10-16T14:44:27;100785.78;;;7.07;nan
72975;BME280;61166;54.228;37.632;2022-10-16T14:46:54;100777.88;;;6.99;nan
72975;BME280;61166;54.228;37.632;2022-10-16T14:49:22;100778.50;;;6.92;nan
72975;BME280;61166;54.228;37.632;2022-10-16T14:51:49;100788.63;;;6.95;nan
72975;BME280;61166;54.228;37.632;2022-10-16T14:54:18;100786.63;;;6.89;nan
72975;BME280;61166;54.228;37.632;2022-10-16T14:56:53;100792.84;;;6.88;nan
72975;BME280;61166;54.228;37.632;2022-10-16T15:01:56;100790.22;;;6.88;nan
72975;BME280;61166;54.228;37.632;2022-10-16T15:04:23;100798.34;;;6.85;nan
72975;BME280;61166;54.228;37.632;2022-10-16T15:06:50;100795.06;;;6.83;nan
72975;BME280;61166;54.228;37.632;2022-10-16T15:09:16;100797.91;;;6.90;nan
72975;BME280;61166;54.228;37.632;2022-10-16T15:11:43;100795.78;;;6.93;nan
72975;BME280;61166;54.228;37.632;2022-10-16T15:14:12;100793.66;;;6.89;nan
72975;BME280;61166;54.228;37.632;2022-10-16T15:16:41;100792.84;;;6.88;nan
72975;BME280;61166;54.228;37.632;2022-10-16T15:19:08;100796.63;;;6.94;nan
72975;BME280;61166;54.228;37.632;2022-10-16T15:21:34;100796.13;;;6.90;nan